<?xml version="1.0" encoding="UTF-8" standalone="no" ?>
<gpx xmlns="http://www.topografix.com/GPX/1/1" xmlns:xsi="http://www.w3.org/2001/XMLSchema-instance" xsi:schemaLocation="http://www.topografix.com/GPX/1/1 http://www.topografix.com/GPX/1/1/gpx.xsd" version="1.1" creator="VisuGPX - https://www.visugpx.com">
  <metadata>
    <name>Sortie Raquette du 02/02/2014</name>
    <desc><![CDATA[Rando assez facile. Belle neige mais manque de soleil.]]></desc>
  </metadata>
  <trk>
    <name><![CDATA[Tracé 2 févr. 2014 14:14:05]]></name>
    <trkseg>
      <trkpt lat="42.91945" lon="0.76157">
        <ele>1343</ele>
        <time>2014-02-02T13:19:02Z</time>
      </trkpt>
      <trkpt lat="42.9195" lon="0.76146">
        <ele>1341</ele>
        <time>2014-02-02T13:21:39Z</time>
      </trkpt>
      <trkpt lat="42.91949" lon="0.76136">
        <ele>1341</ele>
        <time>2014-02-02T13:21:46Z</time>
      </trkpt>
      <trkpt lat="42.91947" lon="0.76126">
        <ele>1341</ele>
        <time>2014-02-02T13:21:51Z</time>
      </trkpt>
      <trkpt lat="42.91947" lon="0.76115">
        <ele>1341</ele>
        <time>2014-02-02T13:21:58Z</time>
      </trkpt>
      <trkpt lat="42.9195" lon="0.76103">
        <ele>1341</ele>
        <time>2014-02-02T13:22:11Z</time>
      </trkpt>
      <trkpt lat="42.91953" lon="0.76093">
        <ele>1342</ele>
        <time>2014-02-02T13:22:21Z</time>
      </trkpt>
      <trkpt lat="42.91956" lon="0.76081">
        <ele>1343</ele>
        <time>2014-02-02T13:22:31Z</time>
      </trkpt>
      <trkpt lat="42.91958" lon="0.7607">
        <ele>1345</ele>
        <time>2014-02-02T13:22:41Z</time>
      </trkpt>
      <trkpt lat="42.91961" lon="0.7606">
        <ele>1347</ele>
        <time>2014-02-02T13:22:54Z</time>
      </trkpt>
      <trkpt lat="42.91966" lon="0.76051">
        <ele>1346</ele>
        <time>2014-02-02T13:23:06Z</time>
      </trkpt>
      <trkpt lat="42.91973" lon="0.76043">
        <ele>1347</ele>
        <time>2014-02-02T13:23:23Z</time>
      </trkpt>
      <trkpt lat="42.91978" lon="0.76054">
        <ele>1349</ele>
        <time>2014-02-02T13:23:38Z</time>
      </trkpt>
      <trkpt lat="42.91984" lon="0.76045">
        <ele>1352</ele>
        <time>2014-02-02T13:24:10Z</time>
      </trkpt>
      <trkpt lat="42.91984" lon="0.76033">
        <ele>1353</ele>
        <time>2014-02-02T13:24:19Z</time>
      </trkpt>
      <trkpt lat="42.91987" lon="0.76022">
        <ele>1353</ele>
        <time>2014-02-02T13:24:35Z</time>
      </trkpt>
      <trkpt lat="42.91988" lon="0.7601">
        <ele>1355</ele>
        <time>2014-02-02T13:24:53Z</time>
      </trkpt>
      <trkpt lat="42.91988" lon="0.75998">
        <ele>1356</ele>
        <time>2014-02-02T13:25:07Z</time>
      </trkpt>
      <trkpt lat="42.91989" lon="0.75987">
        <ele>1356</ele>
        <time>2014-02-02T13:25:20Z</time>
      </trkpt>
      <trkpt lat="42.91988" lon="0.75976">
        <ele>1356</ele>
        <time>2014-02-02T13:25:27Z</time>
      </trkpt>
      <trkpt lat="42.91989" lon="0.75964">
        <ele>1357</ele>
        <time>2014-02-02T13:25:35Z</time>
      </trkpt>
      <trkpt lat="42.91995" lon="0.75957">
        <ele>1360</ele>
        <time>2014-02-02T13:26:46Z</time>
      </trkpt>
      <trkpt lat="42.91997" lon="0.75945">
        <ele>1363</ele>
        <time>2014-02-02T13:27:51Z</time>
      </trkpt>
      <trkpt lat="42.92001" lon="0.75935">
        <ele>1363</ele>
        <time>2014-02-02T13:28:00Z</time>
      </trkpt>
      <trkpt lat="42.92004" lon="0.75924">
        <ele>1362</ele>
        <time>2014-02-02T13:28:12Z</time>
      </trkpt>
      <trkpt lat="42.92005" lon="0.75912">
        <ele>1362</ele>
        <time>2014-02-02T13:28:23Z</time>
      </trkpt>
      <trkpt lat="42.92007" lon="0.759">
        <ele>1362</ele>
        <time>2014-02-02T13:28:42Z</time>
      </trkpt>
      <trkpt lat="42.92" lon="0.75892">
        <ele>1364</ele>
        <time>2014-02-02T13:29:01Z</time>
      </trkpt>
      <trkpt lat="42.91999" lon="0.75881">
        <ele>1364</ele>
        <time>2014-02-02T13:29:15Z</time>
      </trkpt>
      <trkpt lat="42.91998" lon="0.75869">
        <ele>1365</ele>
        <time>2014-02-02T13:29:27Z</time>
      </trkpt>
      <trkpt lat="42.91995" lon="0.75859">
        <ele>1368</ele>
        <time>2014-02-02T13:30:14Z</time>
      </trkpt>
      <trkpt lat="42.91992" lon="0.75847">
        <ele>1369</ele>
        <time>2014-02-02T13:30:29Z</time>
      </trkpt>
      <trkpt lat="42.91991" lon="0.75835">
        <ele>1371</ele>
        <time>2014-02-02T13:31:03Z</time>
      </trkpt>
      <trkpt lat="42.91993" lon="0.75824">
        <ele>1372</ele>
        <time>2014-02-02T13:31:17Z</time>
      </trkpt>
      <trkpt lat="42.91992" lon="0.75812">
        <ele>1377</ele>
        <time>2014-02-02T13:32:51Z</time>
      </trkpt>
      <trkpt lat="42.9199" lon="0.75801">
        <ele>1378</ele>
        <time>2014-02-02T13:33:08Z</time>
      </trkpt>
      <trkpt lat="42.9199" lon="0.75789">
        <ele>1379</ele>
        <time>2014-02-02T13:33:25Z</time>
      </trkpt>
      <trkpt lat="42.9199" lon="0.75777">
        <ele>1380</ele>
        <time>2014-02-02T13:33:34Z</time>
      </trkpt>
      <trkpt lat="42.91991" lon="0.75766">
        <ele>1381</ele>
        <time>2014-02-02T13:33:45Z</time>
      </trkpt>
      <trkpt lat="42.91991" lon="0.75754">
        <ele>1382</ele>
        <time>2014-02-02T13:33:53Z</time>
      </trkpt>
      <trkpt lat="42.91995" lon="0.75743">
        <ele>1383</ele>
        <time>2014-02-02T13:34:08Z</time>
      </trkpt>
      <trkpt lat="42.92001" lon="0.75735">
        <ele>1383</ele>
        <time>2014-02-02T13:34:17Z</time>
      </trkpt>
      <trkpt lat="42.92006" lon="0.75725">
        <ele>1384</ele>
        <time>2014-02-02T13:34:28Z</time>
      </trkpt>
      <trkpt lat="42.92012" lon="0.75716">
        <ele>1383</ele>
        <time>2014-02-02T13:34:40Z</time>
      </trkpt>
      <trkpt lat="42.92018" lon="0.75707">
        <ele>1383</ele>
        <time>2014-02-02T13:34:47Z</time>
      </trkpt>
      <trkpt lat="42.92023" lon="0.75699">
        <ele>1383</ele>
        <time>2014-02-02T13:34:55Z</time>
      </trkpt>
      <trkpt lat="42.92029" lon="0.7569">
        <ele>1382</ele>
        <time>2014-02-02T13:35:05Z</time>
      </trkpt>
      <trkpt lat="42.92036" lon="0.75683">
        <ele>1381</ele>
        <time>2014-02-02T13:35:19Z</time>
      </trkpt>
      <trkpt lat="42.9204" lon="0.75672">
        <ele>1380</ele>
        <time>2014-02-02T13:35:32Z</time>
      </trkpt>
      <trkpt lat="42.92044" lon="0.75662">
        <ele>1379</ele>
        <time>2014-02-02T13:35:42Z</time>
      </trkpt>
      <trkpt lat="42.92051" lon="0.75654">
        <ele>1379</ele>
        <time>2014-02-02T13:35:51Z</time>
      </trkpt>
      <trkpt lat="42.92051" lon="0.75642">
        <ele>1379</ele>
        <time>2014-02-02T13:36:05Z</time>
      </trkpt>
      <trkpt lat="42.92053" lon="0.75631">
        <ele>1378</ele>
        <time>2014-02-02T13:36:15Z</time>
      </trkpt>
      <trkpt lat="42.92054" lon="0.7562">
        <ele>1377</ele>
        <time>2014-02-02T13:36:28Z</time>
      </trkpt>
      <trkpt lat="42.92051" lon="0.75608">
        <ele>1375</ele>
        <time>2014-02-02T13:36:40Z</time>
      </trkpt>
      <trkpt lat="42.92049" lon="0.75596">
        <ele>1377</ele>
        <time>2014-02-02T13:36:51Z</time>
      </trkpt>
      <trkpt lat="42.92052" lon="0.75585">
        <ele>1380</ele>
        <time>2014-02-02T13:37:04Z</time>
      </trkpt>
      <trkpt lat="42.92052" lon="0.75574">
        <ele>1381</ele>
        <time>2014-02-02T13:37:24Z</time>
      </trkpt>
      <trkpt lat="42.92054" lon="0.75563">
        <ele>1382</ele>
        <time>2014-02-02T13:37:35Z</time>
      </trkpt>
      <trkpt lat="42.92054" lon="0.75551">
        <ele>1382</ele>
        <time>2014-02-02T13:37:48Z</time>
      </trkpt>
      <trkpt lat="42.92051" lon="0.7554">
        <ele>1378</ele>
        <time>2014-02-02T13:38:23Z</time>
      </trkpt>
      <trkpt lat="42.92049" lon="0.75532">
        <ele>1384</ele>
        <time>2014-02-02T13:39:04Z</time>
      </trkpt>
      <trkpt lat="42.92049" lon="0.75521">
        <ele>1390</ele>
        <time>2014-02-02T13:39:19Z</time>
      </trkpt>
      <trkpt lat="42.92046" lon="0.75508">
        <ele>1391</ele>
        <time>2014-02-02T13:39:23Z</time>
      </trkpt>
      <trkpt lat="42.92045" lon="0.75497">
        <ele>1397</ele>
        <time>2014-02-02T13:39:52Z</time>
      </trkpt>
      <trkpt lat="42.92043" lon="0.75488">
        <ele>1398</ele>
        <time>2014-02-02T13:40:00Z</time>
      </trkpt>
      <trkpt lat="42.92038" lon="0.75473">
        <ele>1398</ele>
        <time>2014-02-02T13:40:05Z</time>
      </trkpt>
      <trkpt lat="42.92041" lon="0.75461">
        <ele>1398</ele>
        <time>2014-02-02T13:40:17Z</time>
      </trkpt>
      <trkpt lat="42.92038" lon="0.7545">
        <ele>1398</ele>
        <time>2014-02-02T13:40:34Z</time>
      </trkpt>
      <trkpt lat="42.92046" lon="0.75453">
        <ele>1398</ele>
        <time>2014-02-02T13:40:50Z</time>
      </trkpt>
      <trkpt lat="42.92044" lon="0.7545">
        <ele>1395</ele>
        <time>2014-02-02T13:41:23Z</time>
      </trkpt>
      <trkpt lat="42.92036" lon="0.75441">
        <ele>1395</ele>
        <time>2014-02-02T13:41:28Z</time>
      </trkpt>
      <trkpt lat="42.9203" lon="0.75433">
        <ele>1398</ele>
        <time>2014-02-02T13:41:54Z</time>
      </trkpt>
      <trkpt lat="42.92024" lon="0.75425">
        <ele>1400</ele>
        <time>2014-02-02T13:42:38Z</time>
      </trkpt>
      <trkpt lat="42.92023" lon="0.75414">
        <ele>1402</ele>
        <time>2014-02-02T13:42:56Z</time>
      </trkpt>
      <trkpt lat="42.92017" lon="0.75406">
        <ele>1403</ele>
        <time>2014-02-02T13:43:15Z</time>
      </trkpt>
      <trkpt lat="42.92023" lon="0.75397">
        <ele>1403</ele>
        <time>2014-02-02T13:43:41Z</time>
      </trkpt>
      <trkpt lat="42.92017" lon="0.75388">
        <ele>1401</ele>
        <time>2014-02-02T13:44:02Z</time>
      </trkpt>
      <trkpt lat="42.92012" lon="0.75378">
        <ele>1403</ele>
        <time>2014-02-02T13:44:14Z</time>
      </trkpt>
      <trkpt lat="42.92012" lon="0.75366">
        <ele>1406</ele>
        <time>2014-02-02T13:44:37Z</time>
      </trkpt>
      <trkpt lat="42.92008" lon="0.75355">
        <ele>1407</ele>
        <time>2014-02-02T13:44:57Z</time>
      </trkpt>
      <trkpt lat="42.92003" lon="0.75348">
        <ele>1409</ele>
        <time>2014-02-02T13:45:43Z</time>
      </trkpt>
      <trkpt lat="42.91997" lon="0.75338">
        <ele>1415</ele>
        <time>2014-02-02T13:46:02Z</time>
      </trkpt>
      <trkpt lat="42.92003" lon="0.75329">
        <ele>1418</ele>
        <time>2014-02-02T13:46:19Z</time>
      </trkpt>
      <trkpt lat="42.92007" lon="0.75318">
        <ele>1423</ele>
        <time>2014-02-02T13:46:44Z</time>
      </trkpt>
      <trkpt lat="42.92006" lon="0.75307">
        <ele>1429</ele>
        <time>2014-02-02T13:47:14Z</time>
      </trkpt>
      <trkpt lat="42.92006" lon="0.75295">
        <ele>1432</ele>
        <time>2014-02-02T13:47:49Z</time>
      </trkpt>
      <trkpt lat="42.92006" lon="0.75283">
        <ele>1434</ele>
        <time>2014-02-02T13:48:09Z</time>
      </trkpt>
      <trkpt lat="42.92007" lon="0.75271">
        <ele>1435</ele>
        <time>2014-02-02T13:48:34Z</time>
      </trkpt>
      <trkpt lat="42.92015" lon="0.75275">
        <ele>1442</ele>
        <time>2014-02-02T13:51:27Z</time>
      </trkpt>
      <trkpt lat="42.9202" lon="0.75266">
        <ele>1443</ele>
        <time>2014-02-02T13:51:43Z</time>
      </trkpt>
      <trkpt lat="42.92027" lon="0.75259">
        <ele>1449</ele>
        <time>2014-02-02T13:52:35Z</time>
      </trkpt>
      <trkpt lat="42.92033" lon="0.75251">
        <ele>1452</ele>
        <time>2014-02-02T13:52:54Z</time>
      </trkpt>
      <trkpt lat="42.9204" lon="0.75242">
        <ele>1456</ele>
        <time>2014-02-02T13:53:20Z</time>
      </trkpt>
      <trkpt lat="42.9204" lon="0.75254">
        <ele>1456</ele>
        <time>2014-02-02T13:53:35Z</time>
      </trkpt>
      <trkpt lat="42.92044" lon="0.75244">
        <ele>1459</ele>
        <time>2014-02-02T13:54:16Z</time>
      </trkpt>
      <trkpt lat="42.92049" lon="0.75235">
        <ele>1462</ele>
        <time>2014-02-02T13:54:53Z</time>
      </trkpt>
      <trkpt lat="42.92041" lon="0.75231">
        <ele>1464</ele>
        <time>2014-02-02T13:55:23Z</time>
      </trkpt>
      <trkpt lat="42.92041" lon="0.75243">
        <ele>1464</ele>
        <time>2014-02-02T13:56:05Z</time>
      </trkpt>
      <trkpt lat="42.92041" lon="0.75254">
        <ele>1467</ele>
        <time>2014-02-02T13:56:59Z</time>
      </trkpt>
      <trkpt lat="42.92041" lon="0.75243">
        <ele>1467</ele>
        <time>2014-02-02T13:57:10Z</time>
      </trkpt>
      <trkpt lat="42.92047" lon="0.75235">
        <ele>1468</ele>
        <time>2014-02-02T13:57:31Z</time>
      </trkpt>
      <trkpt lat="42.92046" lon="0.75223">
        <ele>1468</ele>
        <time>2014-02-02T13:58:08Z</time>
      </trkpt>
      <trkpt lat="42.92038" lon="0.75229">
        <ele>1469</ele>
        <time>2014-02-02T13:59:59Z</time>
      </trkpt>
      <trkpt lat="42.92042" lon="0.7524">
        <ele>1469</ele>
        <time>2014-02-02T14:01:02Z</time>
      </trkpt>
      <trkpt lat="42.92048" lon="0.75249">
        <ele>1471</ele>
        <time>2014-02-02T14:01:41Z</time>
      </trkpt>
      <trkpt lat="42.92054" lon="0.75241">
        <ele>1472</ele>
        <time>2014-02-02T14:02:02Z</time>
      </trkpt>
      <trkpt lat="42.92059" lon="0.75231">
        <ele>1474</ele>
        <time>2014-02-02T14:02:37Z</time>
      </trkpt>
      <trkpt lat="42.92062" lon="0.7522">
        <ele>1474</ele>
        <time>2014-02-02T14:03:02Z</time>
      </trkpt>
      <trkpt lat="42.92068" lon="0.75212">
        <ele>1478</ele>
        <time>2014-02-02T14:03:35Z</time>
      </trkpt>
      <trkpt lat="42.92077" lon="0.75217">
        <ele>1479</ele>
        <time>2014-02-02T14:04:03Z</time>
      </trkpt>
      <trkpt lat="42.92081" lon="0.75228">
        <ele>1481</ele>
        <time>2014-02-02T14:04:48Z</time>
      </trkpt>
      <trkpt lat="42.92087" lon="0.75236">
        <ele>1482</ele>
        <time>2014-02-02T14:07:42Z</time>
      </trkpt>
      <trkpt lat="42.92096" lon="0.75237">
        <ele>1484</ele>
        <time>2014-02-02T14:08:12Z</time>
      </trkpt>
      <trkpt lat="42.92101" lon="0.75228">
        <ele>1484</ele>
        <time>2014-02-02T14:08:23Z</time>
      </trkpt>
      <trkpt lat="42.92097" lon="0.75217">
        <ele>1490</ele>
        <time>2014-02-02T14:09:15Z</time>
      </trkpt>
      <trkpt lat="42.92094" lon="0.75206">
        <ele>1492</ele>
        <time>2014-02-02T14:09:26Z</time>
      </trkpt>
      <trkpt lat="42.92093" lon="0.75194">
        <ele>1495</ele>
        <time>2014-02-02T14:09:35Z</time>
      </trkpt>
      <trkpt lat="42.92089" lon="0.75184">
        <ele>1497</ele>
        <time>2014-02-02T14:09:47Z</time>
      </trkpt>
      <trkpt lat="42.9208" lon="0.75183">
        <ele>1500</ele>
        <time>2014-02-02T14:11:13Z</time>
      </trkpt>
      <trkpt lat="42.92086" lon="0.75193">
        <ele>1498</ele>
        <time>2014-02-02T14:12:06Z</time>
      </trkpt>
      <trkpt lat="42.92095" lon="0.75193">
        <ele>1504</ele>
        <time>2014-02-02T14:13:09Z</time>
      </trkpt>
      <trkpt lat="42.92103" lon="0.75191">
        <ele>1505</ele>
        <time>2014-02-02T14:13:30Z</time>
      </trkpt>
      <trkpt lat="42.92111" lon="0.75198">
        <ele>1505</ele>
        <time>2014-02-02T14:13:59Z</time>
      </trkpt>
      <trkpt lat="42.92119" lon="0.75197">
        <ele>1507</ele>
        <time>2014-02-02T14:14:22Z</time>
      </trkpt>
      <trkpt lat="42.92122" lon="0.75185">
        <ele>1507</ele>
        <time>2014-02-02T14:14:53Z</time>
      </trkpt>
      <trkpt lat="42.92125" lon="0.75174">
        <ele>1509</ele>
        <time>2014-02-02T14:15:23Z</time>
      </trkpt>
      <trkpt lat="42.92123" lon="0.75163">
        <ele>1510</ele>
        <time>2014-02-02T14:15:37Z</time>
      </trkpt>
      <trkpt lat="42.92126" lon="0.75174">
        <ele>1513</ele>
        <time>2014-02-02T14:16:43Z</time>
      </trkpt>
      <trkpt lat="42.92134" lon="0.75178">
        <ele>1513</ele>
        <time>2014-02-02T14:17:01Z</time>
      </trkpt>
      <trkpt lat="42.92142" lon="0.75184">
        <ele>1514</ele>
        <time>2014-02-02T14:17:18Z</time>
      </trkpt>
      <trkpt lat="42.9214" lon="0.75172">
        <ele>1515</ele>
        <time>2014-02-02T14:17:51Z</time>
      </trkpt>
      <trkpt lat="42.92148" lon="0.75175">
        <ele>1520</ele>
        <time>2014-02-02T14:18:32Z</time>
      </trkpt>
      <trkpt lat="42.92157" lon="0.75178">
        <ele>1524</ele>
        <time>2014-02-02T14:19:11Z</time>
      </trkpt>
      <trkpt lat="42.92151" lon="0.75169">
        <ele>1518</ele>
        <time>2014-02-02T14:19:36Z</time>
      </trkpt>
      <trkpt lat="42.92159" lon="0.75164">
        <ele>1528</ele>
        <time>2014-02-02T14:20:29Z</time>
      </trkpt>
      <trkpt lat="42.92163" lon="0.75153">
        <ele>1529</ele>
        <time>2014-02-02T14:20:43Z</time>
      </trkpt>
      <trkpt lat="42.92166" lon="0.75143">
        <ele>1530</ele>
        <time>2014-02-02T14:20:59Z</time>
      </trkpt>
      <trkpt lat="42.92166" lon="0.75131">
        <ele>1534</ele>
        <time>2014-02-02T14:21:23Z</time>
      </trkpt>
      <trkpt lat="42.92168" lon="0.75119">
        <ele>1535</ele>
        <time>2014-02-02T14:21:49Z</time>
      </trkpt>
      <trkpt lat="42.92168" lon="0.75107">
        <ele>1538</ele>
        <time>2014-02-02T14:22:21Z</time>
      </trkpt>
      <trkpt lat="42.92173" lon="0.75097">
        <ele>1545</ele>
        <time>2014-02-02T14:24:25Z</time>
      </trkpt>
      <trkpt lat="42.92179" lon="0.75088">
        <ele>1549</ele>
        <time>2014-02-02T14:25:22Z</time>
      </trkpt>
      <trkpt lat="42.92187" lon="0.75093">
        <ele>1551</ele>
        <time>2014-02-02T14:26:07Z</time>
      </trkpt>
      <trkpt lat="42.92187" lon="0.75105">
        <ele>1553</ele>
        <time>2014-02-02T14:26:38Z</time>
      </trkpt>
      <trkpt lat="42.92193" lon="0.75115">
        <ele>1556</ele>
        <time>2014-02-02T14:27:08Z</time>
      </trkpt>
      <trkpt lat="42.92201" lon="0.75112">
        <ele>1560</ele>
        <time>2014-02-02T14:27:49Z</time>
      </trkpt>
      <trkpt lat="42.92206" lon="0.75122">
        <ele>1563</ele>
        <time>2014-02-02T14:28:22Z</time>
      </trkpt>
      <trkpt lat="42.92214" lon="0.75126">
        <ele>1565</ele>
        <time>2014-02-02T14:28:58Z</time>
      </trkpt>
      <trkpt lat="42.92221" lon="0.75118">
        <ele>1567</ele>
        <time>2014-02-02T14:29:28Z</time>
      </trkpt>
      <trkpt lat="42.92224" lon="0.75129">
        <ele>1571</ele>
        <time>2014-02-02T14:29:58Z</time>
      </trkpt>
      <trkpt lat="42.92232" lon="0.75126">
        <ele>1574</ele>
        <time>2014-02-02T14:30:16Z</time>
      </trkpt>
      <trkpt lat="42.92239" lon="0.75119">
        <ele>1576</ele>
        <time>2014-02-02T14:30:28Z</time>
      </trkpt>
      <trkpt lat="42.92244" lon="0.75108">
        <ele>1578</ele>
        <time>2014-02-02T14:30:46Z</time>
      </trkpt>
      <trkpt lat="42.92252" lon="0.75104">
        <ele>1586</ele>
        <time>2014-02-02T14:40:44Z</time>
      </trkpt>
      <trkpt lat="42.92245" lon="0.7511">
        <ele>1582</ele>
        <time>2014-02-02T14:44:02Z</time>
      </trkpt>
      <trkpt lat="42.92239" lon="0.75101">
        <ele>1583</ele>
        <time>2014-02-02T14:45:09Z</time>
      </trkpt>
      <trkpt lat="42.92237" lon="0.75089">
        <ele>1583</ele>
        <time>2014-02-02T14:45:19Z</time>
      </trkpt>
      <trkpt lat="42.92239" lon="0.75077">
        <ele>1583</ele>
        <time>2014-02-02T14:45:30Z</time>
      </trkpt>
      <trkpt lat="42.92246" lon="0.75071">
        <ele>1584</ele>
        <time>2014-02-02T14:45:57Z</time>
      </trkpt>
      <trkpt lat="42.92249" lon="0.75082">
        <ele>1584</ele>
        <time>2014-02-02T14:46:49Z</time>
      </trkpt>
      <trkpt lat="42.92252" lon="0.75093">
        <ele>1585</ele>
        <time>2014-02-02T14:47:05Z</time>
      </trkpt>
      <trkpt lat="42.92255" lon="0.75104">
        <ele>1585</ele>
        <time>2014-02-02T14:47:17Z</time>
      </trkpt>
      <trkpt lat="42.92256" lon="0.75115">
        <ele>1585</ele>
        <time>2014-02-02T14:47:30Z</time>
      </trkpt>
      <trkpt lat="42.92254" lon="0.75126">
        <ele>1585</ele>
        <time>2014-02-02T14:47:40Z</time>
      </trkpt>
      <trkpt lat="42.92251" lon="0.75136">
        <ele>1585</ele>
        <time>2014-02-02T14:47:48Z</time>
      </trkpt>
      <trkpt lat="42.92249" lon="0.75147">
        <ele>1584</ele>
        <time>2014-02-02T14:47:57Z</time>
      </trkpt>
      <trkpt lat="42.92248" lon="0.75158">
        <ele>1584</ele>
        <time>2014-02-02T14:48:05Z</time>
      </trkpt>
      <trkpt lat="42.92247" lon="0.7517">
        <ele>1584</ele>
        <time>2014-02-02T14:48:16Z</time>
      </trkpt>
      <trkpt lat="42.92247" lon="0.75182">
        <ele>1584</ele>
        <time>2014-02-02T14:48:27Z</time>
      </trkpt>
      <trkpt lat="42.92248" lon="0.75193">
        <ele>1584</ele>
        <time>2014-02-02T14:48:34Z</time>
      </trkpt>
      <trkpt lat="42.92254" lon="0.75202">
        <ele>1583</ele>
        <time>2014-02-02T14:48:59Z</time>
      </trkpt>
      <trkpt lat="42.92256" lon="0.75214">
        <ele>1583</ele>
        <time>2014-02-02T14:49:11Z</time>
      </trkpt>
      <trkpt lat="42.92257" lon="0.75226">
        <ele>1583</ele>
        <time>2014-02-02T14:49:20Z</time>
      </trkpt>
      <trkpt lat="42.92257" lon="0.75237">
        <ele>1583</ele>
        <time>2014-02-02T14:49:28Z</time>
      </trkpt>
      <trkpt lat="42.92258" lon="0.75249">
        <ele>1582</ele>
        <time>2014-02-02T14:49:58Z</time>
      </trkpt>
      <trkpt lat="42.9226" lon="0.7526">
        <ele>1582</ele>
        <time>2014-02-02T14:50:16Z</time>
      </trkpt>
      <trkpt lat="42.9226" lon="0.75272">
        <ele>1581</ele>
        <time>2014-02-02T14:50:27Z</time>
      </trkpt>
      <trkpt lat="42.92259" lon="0.75284">
        <ele>1581</ele>
        <time>2014-02-02T14:50:37Z</time>
      </trkpt>
      <trkpt lat="42.92258" lon="0.75296">
        <ele>1580</ele>
        <time>2014-02-02T14:50:47Z</time>
      </trkpt>
      <trkpt lat="42.92259" lon="0.75307">
        <ele>1579</ele>
        <time>2014-02-02T14:50:57Z</time>
      </trkpt>
      <trkpt lat="42.92261" lon="0.75318">
        <ele>1579</ele>
        <time>2014-02-02T14:51:05Z</time>
      </trkpt>
      <trkpt lat="42.92261" lon="0.7533">
        <ele>1578</ele>
        <time>2014-02-02T14:51:14Z</time>
      </trkpt>
      <trkpt lat="42.92262" lon="0.75342">
        <ele>1577</ele>
        <time>2014-02-02T14:51:25Z</time>
      </trkpt>
      <trkpt lat="42.92263" lon="0.75353">
        <ele>1577</ele>
        <time>2014-02-02T14:51:34Z</time>
      </trkpt>
      <trkpt lat="42.92266" lon="0.75364">
        <ele>1576</ele>
        <time>2014-02-02T14:51:46Z</time>
      </trkpt>
      <trkpt lat="42.92269" lon="0.75376">
        <ele>1575</ele>
        <time>2014-02-02T14:51:55Z</time>
      </trkpt>
      <trkpt lat="42.92271" lon="0.75387">
        <ele>1574</ele>
        <time>2014-02-02T14:52:03Z</time>
      </trkpt>
      <trkpt lat="42.92271" lon="0.75399">
        <ele>1574</ele>
        <time>2014-02-02T14:52:10Z</time>
      </trkpt>
      <trkpt lat="42.92274" lon="0.7541">
        <ele>1573</ele>
        <time>2014-02-02T14:52:22Z</time>
      </trkpt>
      <trkpt lat="42.92276" lon="0.75422">
        <ele>1572</ele>
        <time>2014-02-02T14:52:30Z</time>
      </trkpt>
      <trkpt lat="42.92278" lon="0.75432">
        <ele>1572</ele>
        <time>2014-02-02T14:52:38Z</time>
      </trkpt>
      <trkpt lat="42.9228" lon="0.75443">
        <ele>1571</ele>
        <time>2014-02-02T14:52:46Z</time>
      </trkpt>
      <trkpt lat="42.92283" lon="0.75454">
        <ele>1570</ele>
        <time>2014-02-02T14:52:57Z</time>
      </trkpt>
      <trkpt lat="42.92287" lon="0.75465">
        <ele>1570</ele>
        <time>2014-02-02T14:53:06Z</time>
      </trkpt>
      <trkpt lat="42.92293" lon="0.75472">
        <ele>1568</ele>
        <time>2014-02-02T14:53:44Z</time>
      </trkpt>
      <trkpt lat="42.92296" lon="0.75483">
        <ele>1568</ele>
        <time>2014-02-02T14:53:49Z</time>
      </trkpt>
      <trkpt lat="42.92299" lon="0.75493">
        <ele>1568</ele>
        <time>2014-02-02T14:53:55Z</time>
      </trkpt>
      <trkpt lat="42.92301" lon="0.75505">
        <ele>1568</ele>
        <time>2014-02-02T14:54:03Z</time>
      </trkpt>
      <trkpt lat="42.92301" lon="0.75516">
        <ele>1567</ele>
        <time>2014-02-02T14:54:13Z</time>
      </trkpt>
      <trkpt lat="42.92304" lon="0.75527">
        <ele>1565</ele>
        <time>2014-02-02T14:54:25Z</time>
      </trkpt>
      <trkpt lat="42.92309" lon="0.75537">
        <ele>1564</ele>
        <time>2014-02-02T14:54:34Z</time>
      </trkpt>
      <trkpt lat="42.92314" lon="0.75546">
        <ele>1564</ele>
        <time>2014-02-02T14:54:44Z</time>
      </trkpt>
      <trkpt lat="42.92319" lon="0.75556">
        <ele>1563</ele>
        <time>2014-02-02T14:55:05Z</time>
      </trkpt>
      <trkpt lat="42.92325" lon="0.75565">
        <ele>1563</ele>
        <time>2014-02-02T14:55:17Z</time>
      </trkpt>
      <trkpt lat="42.9233" lon="0.75574">
        <ele>1562</ele>
        <time>2014-02-02T14:55:27Z</time>
      </trkpt>
      <trkpt lat="42.92333" lon="0.75586">
        <ele>1560</ele>
        <time>2014-02-02T14:55:39Z</time>
      </trkpt>
      <trkpt lat="42.92334" lon="0.75598">
        <ele>1559</ele>
        <time>2014-02-02T14:55:49Z</time>
      </trkpt>
      <trkpt lat="42.92333" lon="0.75609">
        <ele>1558</ele>
        <time>2014-02-02T14:55:59Z</time>
      </trkpt>
      <trkpt lat="42.92335" lon="0.75621">
        <ele>1557</ele>
        <time>2014-02-02T14:56:08Z</time>
      </trkpt>
      <trkpt lat="42.92338" lon="0.75632">
        <ele>1555</ele>
        <time>2014-02-02T14:56:18Z</time>
      </trkpt>
      <trkpt lat="42.92339" lon="0.75644">
        <ele>1554</ele>
        <time>2014-02-02T14:56:26Z</time>
      </trkpt>
      <trkpt lat="42.9234" lon="0.75655">
        <ele>1553</ele>
        <time>2014-02-02T14:56:35Z</time>
      </trkpt>
      <trkpt lat="42.92341" lon="0.75667">
        <ele>1553</ele>
        <time>2014-02-02T14:56:44Z</time>
      </trkpt>
      <trkpt lat="42.92342" lon="0.75679">
        <ele>1552</ele>
        <time>2014-02-02T14:56:54Z</time>
      </trkpt>
      <trkpt lat="42.92342" lon="0.75691">
        <ele>1552</ele>
        <time>2014-02-02T14:57:02Z</time>
      </trkpt>
      <trkpt lat="42.92348" lon="0.757">
        <ele>1549</ele>
        <time>2014-02-02T14:57:47Z</time>
      </trkpt>
      <trkpt lat="42.92348" lon="0.75712">
        <ele>1549</ele>
        <time>2014-02-02T14:57:53Z</time>
      </trkpt>
      <trkpt lat="42.92348" lon="0.75722">
        <ele>1548</ele>
        <time>2014-02-02T14:57:57Z</time>
      </trkpt>
      <trkpt lat="42.92349" lon="0.75734">
        <ele>1548</ele>
        <time>2014-02-02T14:58:05Z</time>
      </trkpt>
      <trkpt lat="42.9235" lon="0.75745">
        <ele>1547</ele>
        <time>2014-02-02T14:58:11Z</time>
      </trkpt>
      <trkpt lat="42.9235" lon="0.75755">
        <ele>1547</ele>
        <time>2014-02-02T14:58:16Z</time>
      </trkpt>
      <trkpt lat="42.92352" lon="0.75767">
        <ele>1547</ele>
        <time>2014-02-02T14:58:23Z</time>
      </trkpt>
      <trkpt lat="42.92354" lon="0.75778">
        <ele>1546</ele>
        <time>2014-02-02T14:58:32Z</time>
      </trkpt>
      <trkpt lat="42.92355" lon="0.75789">
        <ele>1546</ele>
        <time>2014-02-02T14:58:38Z</time>
      </trkpt>
      <trkpt lat="42.92355" lon="0.758">
        <ele>1545</ele>
        <time>2014-02-02T14:58:44Z</time>
      </trkpt>
      <trkpt lat="42.92356" lon="0.75811">
        <ele>1545</ele>
        <time>2014-02-02T14:58:50Z</time>
      </trkpt>
      <trkpt lat="42.92357" lon="0.75822">
        <ele>1544</ele>
        <time>2014-02-02T14:58:59Z</time>
      </trkpt>
      <trkpt lat="42.92359" lon="0.75834">
        <ele>1544</ele>
        <time>2014-02-02T14:59:06Z</time>
      </trkpt>
      <trkpt lat="42.92361" lon="0.75846">
        <ele>1543</ele>
        <time>2014-02-02T14:59:17Z</time>
      </trkpt>
      <trkpt lat="42.92364" lon="0.75856">
        <ele>1542</ele>
        <time>2014-02-02T14:59:24Z</time>
      </trkpt>
      <trkpt lat="42.92366" lon="0.75868">
        <ele>1541</ele>
        <time>2014-02-02T14:59:34Z</time>
      </trkpt>
      <trkpt lat="42.92368" lon="0.75879">
        <ele>1540</ele>
        <time>2014-02-02T14:59:46Z</time>
      </trkpt>
      <trkpt lat="42.92369" lon="0.75891">
        <ele>1538</ele>
        <time>2014-02-02T14:59:55Z</time>
      </trkpt>
      <trkpt lat="42.9237" lon="0.75902">
        <ele>1537</ele>
        <time>2014-02-02T15:00:06Z</time>
      </trkpt>
      <trkpt lat="42.92372" lon="0.75914">
        <ele>1535</ele>
        <time>2014-02-02T15:00:16Z</time>
      </trkpt>
      <trkpt lat="42.92373" lon="0.75924">
        <ele>1534</ele>
        <time>2014-02-02T15:00:25Z</time>
      </trkpt>
      <trkpt lat="42.92373" lon="0.75936">
        <ele>1533</ele>
        <time>2014-02-02T15:00:33Z</time>
      </trkpt>
      <trkpt lat="42.92373" lon="0.75945">
        <ele>1532</ele>
        <time>2014-02-02T15:00:38Z</time>
      </trkpt>
      <trkpt lat="42.92373" lon="0.75956">
        <ele>1532</ele>
        <time>2014-02-02T15:00:45Z</time>
      </trkpt>
      <trkpt lat="42.92373" lon="0.75967">
        <ele>1531</ele>
        <time>2014-02-02T15:00:54Z</time>
      </trkpt>
      <trkpt lat="42.92372" lon="0.75978">
        <ele>1530</ele>
        <time>2014-02-02T15:01:01Z</time>
      </trkpt>
      <trkpt lat="42.92371" lon="0.75989">
        <ele>1528</ele>
        <time>2014-02-02T15:01:19Z</time>
      </trkpt>
      <trkpt lat="42.92372" lon="0.76001">
        <ele>1526</ele>
        <time>2014-02-02T15:01:25Z</time>
      </trkpt>
      <trkpt lat="42.92373" lon="0.76012">
        <ele>1525</ele>
        <time>2014-02-02T15:01:34Z</time>
      </trkpt>
      <trkpt lat="42.92372" lon="0.76024">
        <ele>1524</ele>
        <time>2014-02-02T15:01:45Z</time>
      </trkpt>
      <trkpt lat="42.92378" lon="0.7603">
        <ele>1521</ele>
        <time>2014-02-02T15:02:31Z</time>
      </trkpt>
      <trkpt lat="42.9238" lon="0.76042">
        <ele>1520</ele>
        <time>2014-02-02T15:02:38Z</time>
      </trkpt>
      <trkpt lat="42.92382" lon="0.76053">
        <ele>1519</ele>
        <time>2014-02-02T15:02:46Z</time>
      </trkpt>
      <trkpt lat="42.92383" lon="0.76063">
        <ele>1519</ele>
        <time>2014-02-02T15:02:51Z</time>
      </trkpt>
      <trkpt lat="42.92383" lon="0.76074">
        <ele>1519</ele>
        <time>2014-02-02T15:02:56Z</time>
      </trkpt>
      <trkpt lat="42.92382" lon="0.76085">
        <ele>1519</ele>
        <time>2014-02-02T15:03:04Z</time>
      </trkpt>
      <trkpt lat="42.92379" lon="0.76096">
        <ele>1518</ele>
        <time>2014-02-02T15:03:11Z</time>
      </trkpt>
      <trkpt lat="42.92388" lon="0.76095">
        <ele>1516</ele>
        <time>2014-02-02T15:04:25Z</time>
      </trkpt>
      <trkpt lat="42.9238" lon="0.76092">
        <ele>1514</ele>
        <time>2014-02-02T15:05:28Z</time>
      </trkpt>
      <trkpt lat="42.92384" lon="0.76102">
        <ele>1512</ele>
        <time>2014-02-02T15:05:52Z</time>
      </trkpt>
      <trkpt lat="42.92388" lon="0.76113">
        <ele>1511</ele>
        <time>2014-02-02T15:05:58Z</time>
      </trkpt>
      <trkpt lat="42.9239" lon="0.76124">
        <ele>1511</ele>
        <time>2014-02-02T15:06:09Z</time>
      </trkpt>
      <trkpt lat="42.92392" lon="0.76136">
        <ele>1511</ele>
        <time>2014-02-02T15:06:18Z</time>
      </trkpt>
      <trkpt lat="42.92396" lon="0.76146">
        <ele>1511</ele>
        <time>2014-02-02T15:07:31Z</time>
      </trkpt>
      <trkpt lat="42.92398" lon="0.76158">
        <ele>1513</ele>
        <time>2014-02-02T15:07:46Z</time>
      </trkpt>
      <trkpt lat="42.92399" lon="0.76169">
        <ele>1513</ele>
        <time>2014-02-02T15:07:54Z</time>
      </trkpt>
      <trkpt lat="42.92401" lon="0.76179">
        <ele>1513</ele>
        <time>2014-02-02T15:08:01Z</time>
      </trkpt>
      <trkpt lat="42.92402" lon="0.7619">
        <ele>1514</ele>
        <time>2014-02-02T15:08:07Z</time>
      </trkpt>
      <trkpt lat="42.92401" lon="0.76202">
        <ele>1513</ele>
        <time>2014-02-02T15:08:18Z</time>
      </trkpt>
      <trkpt lat="42.92401" lon="0.76212">
        <ele>1512</ele>
        <time>2014-02-02T15:08:25Z</time>
      </trkpt>
      <trkpt lat="42.92402" lon="0.76224">
        <ele>1512</ele>
        <time>2014-02-02T15:08:31Z</time>
      </trkpt>
      <trkpt lat="42.92405" lon="0.76236">
        <ele>1511</ele>
        <time>2014-02-02T15:08:38Z</time>
      </trkpt>
      <trkpt lat="42.92408" lon="0.76247">
        <ele>1510</ele>
        <time>2014-02-02T15:08:45Z</time>
      </trkpt>
      <trkpt lat="42.92411" lon="0.76258">
        <ele>1509</ele>
        <time>2014-02-02T15:08:53Z</time>
      </trkpt>
      <trkpt lat="42.92416" lon="0.76267">
        <ele>1508</ele>
        <time>2014-02-02T15:08:59Z</time>
      </trkpt>
      <trkpt lat="42.92419" lon="0.76276">
        <ele>1508</ele>
        <time>2014-02-02T15:09:06Z</time>
      </trkpt>
      <trkpt lat="42.92423" lon="0.76288">
        <ele>1506</ele>
        <time>2014-02-02T15:09:15Z</time>
      </trkpt>
      <trkpt lat="42.92424" lon="0.76299">
        <ele>1505</ele>
        <time>2014-02-02T15:09:22Z</time>
      </trkpt>
      <trkpt lat="42.92426" lon="0.76311">
        <ele>1504</ele>
        <time>2014-02-02T15:09:31Z</time>
      </trkpt>
      <trkpt lat="42.92431" lon="0.7632">
        <ele>1503</ele>
        <time>2014-02-02T15:09:37Z</time>
      </trkpt>
      <trkpt lat="42.92436" lon="0.7633">
        <ele>1502</ele>
        <time>2014-02-02T15:09:43Z</time>
      </trkpt>
      <trkpt lat="42.92442" lon="0.76337">
        <ele>1501</ele>
        <time>2014-02-02T15:09:52Z</time>
      </trkpt>
      <trkpt lat="42.92447" lon="0.76347">
        <ele>1501</ele>
        <time>2014-02-02T15:09:58Z</time>
      </trkpt>
      <trkpt lat="42.92451" lon="0.76357">
        <ele>1499</ele>
        <time>2014-02-02T15:10:05Z</time>
      </trkpt>
      <trkpt lat="42.92456" lon="0.76367">
        <ele>1498</ele>
        <time>2014-02-02T15:10:12Z</time>
      </trkpt>
      <trkpt lat="42.92459" lon="0.76378">
        <ele>1497</ele>
        <time>2014-02-02T15:10:19Z</time>
      </trkpt>
      <trkpt lat="42.92451" lon="0.7638">
        <ele>1490</ele>
        <time>2014-02-02T15:12:21Z</time>
      </trkpt>
      <trkpt lat="42.9245" lon="0.76368">
        <ele>1489</ele>
        <time>2014-02-02T15:12:48Z</time>
      </trkpt>
      <trkpt lat="42.92456" lon="0.76359">
        <ele>1488</ele>
        <time>2014-02-02T15:13:09Z</time>
      </trkpt>
      <trkpt lat="42.9245" lon="0.76351">
        <ele>1485</ele>
        <time>2014-02-02T15:13:24Z</time>
      </trkpt>
      <trkpt lat="42.92443" lon="0.76348">
        <ele>1484</ele>
        <time>2014-02-02T15:13:32Z</time>
      </trkpt>
      <trkpt lat="42.92436" lon="0.7634">
        <ele>1484</ele>
        <time>2014-02-02T15:13:38Z</time>
      </trkpt>
      <trkpt lat="42.9243" lon="0.76333">
        <ele>1483</ele>
        <time>2014-02-02T15:13:48Z</time>
      </trkpt>
      <trkpt lat="42.92422" lon="0.76333">
        <ele>1482</ele>
        <time>2014-02-02T15:13:57Z</time>
      </trkpt>
      <trkpt lat="42.92413" lon="0.76331">
        <ele>1479</ele>
        <time>2014-02-02T15:14:13Z</time>
      </trkpt>
      <trkpt lat="42.92405" lon="0.76335">
        <ele>1477</ele>
        <time>2014-02-02T15:14:20Z</time>
      </trkpt>
      <trkpt lat="42.92397" lon="0.7634">
        <ele>1476</ele>
        <time>2014-02-02T15:14:29Z</time>
      </trkpt>
      <trkpt lat="42.92388" lon="0.76341">
        <ele>1474</ele>
        <time>2014-02-02T15:14:36Z</time>
      </trkpt>
      <trkpt lat="42.9238" lon="0.76341">
        <ele>1472</ele>
        <time>2014-02-02T15:14:45Z</time>
      </trkpt>
      <trkpt lat="42.92371" lon="0.76344">
        <ele>1467</ele>
        <time>2014-02-02T15:15:05Z</time>
      </trkpt>
      <trkpt lat="42.92362" lon="0.76343">
        <ele>1463</ele>
        <time>2014-02-02T15:15:18Z</time>
      </trkpt>
      <trkpt lat="42.92354" lon="0.76337">
        <ele>1460</ele>
        <time>2014-02-02T15:15:28Z</time>
      </trkpt>
      <trkpt lat="42.92348" lon="0.76328">
        <ele>1456</ele>
        <time>2014-02-02T15:15:37Z</time>
      </trkpt>
      <trkpt lat="42.92344" lon="0.76319">
        <ele>1452</ele>
        <time>2014-02-02T15:15:43Z</time>
      </trkpt>
      <trkpt lat="42.9234" lon="0.76309">
        <ele>1447</ele>
        <time>2014-02-02T15:15:52Z</time>
      </trkpt>
      <trkpt lat="42.92336" lon="0.76299">
        <ele>1440</ele>
        <time>2014-02-02T15:16:03Z</time>
      </trkpt>
      <trkpt lat="42.9233" lon="0.7629">
        <ele>1433</ele>
        <time>2014-02-02T15:16:14Z</time>
      </trkpt>
      <trkpt lat="42.92326" lon="0.76282">
        <ele>1431</ele>
        <time>2014-02-02T15:16:21Z</time>
      </trkpt>
      <trkpt lat="42.9232" lon="0.7627">
        <ele>1430</ele>
        <time>2014-02-02T15:16:26Z</time>
      </trkpt>
      <trkpt lat="42.92318" lon="0.76261">
        <ele>1434</ele>
        <time>2014-02-02T15:16:37Z</time>
      </trkpt>
      <trkpt lat="42.92316" lon="0.76242">
        <ele>1436</ele>
        <time>2014-02-02T15:16:41Z</time>
      </trkpt>
      <trkpt lat="42.92313" lon="0.76225">
        <ele>1438</ele>
        <time>2014-02-02T15:16:45Z</time>
      </trkpt>
      <trkpt lat="42.92307" lon="0.76215">
        <ele>1440</ele>
        <time>2014-02-02T15:16:49Z</time>
      </trkpt>
      <trkpt lat="42.92301" lon="0.76207">
        <ele>1442</ele>
        <time>2014-02-02T15:16:55Z</time>
      </trkpt>
      <trkpt lat="42.92296" lon="0.76197">
        <ele>1443</ele>
        <time>2014-02-02T15:17:02Z</time>
      </trkpt>
      <trkpt lat="42.92289" lon="0.76189">
        <ele>1445</ele>
        <time>2014-02-02T15:17:11Z</time>
      </trkpt>
      <trkpt lat="42.92288" lon="0.76178">
        <ele>1446</ele>
        <time>2014-02-02T15:17:19Z</time>
      </trkpt>
      <trkpt lat="42.92286" lon="0.76166">
        <ele>1446</ele>
        <time>2014-02-02T15:17:24Z</time>
      </trkpt>
      <trkpt lat="42.92283" lon="0.76155">
        <ele>1446</ele>
        <time>2014-02-02T15:17:34Z</time>
      </trkpt>
      <trkpt lat="42.9228" lon="0.76143">
        <ele>1446</ele>
        <time>2014-02-02T15:17:41Z</time>
      </trkpt>
      <trkpt lat="42.92279" lon="0.76132">
        <ele>1446</ele>
        <time>2014-02-02T15:17:48Z</time>
      </trkpt>
      <trkpt lat="42.92278" lon="0.7612">
        <ele>1445</ele>
        <time>2014-02-02T15:18:05Z</time>
      </trkpt>
      <trkpt lat="42.92274" lon="0.7611">
        <ele>1447</ele>
        <time>2014-02-02T15:18:24Z</time>
      </trkpt>
      <trkpt lat="42.92275" lon="0.76099">
        <ele>1447</ele>
        <time>2014-02-02T15:18:36Z</time>
      </trkpt>
      <trkpt lat="42.92277" lon="0.76087">
        <ele>1447</ele>
        <time>2014-02-02T15:19:04Z</time>
      </trkpt>
      <trkpt lat="42.92274" lon="0.76076">
        <ele>1448</ele>
        <time>2014-02-02T15:19:13Z</time>
      </trkpt>
      <trkpt lat="42.92267" lon="0.7607">
        <ele>1449</ele>
        <time>2014-02-02T15:19:26Z</time>
      </trkpt>
      <trkpt lat="42.92267" lon="0.76058">
        <ele>1447</ele>
        <time>2014-02-02T15:19:46Z</time>
      </trkpt>
      <trkpt lat="42.9226" lon="0.76051">
        <ele>1437</ele>
        <time>2014-02-02T15:20:13Z</time>
      </trkpt>
      <trkpt lat="42.92251" lon="0.76052">
        <ele>1436</ele>
        <time>2014-02-02T15:20:24Z</time>
      </trkpt>
      <trkpt lat="42.92243" lon="0.76051">
        <ele>1436</ele>
        <time>2014-02-02T15:20:44Z</time>
      </trkpt>
      <trkpt lat="42.92236" lon="0.76045">
        <ele>1429</ele>
        <time>2014-02-02T15:21:16Z</time>
      </trkpt>
      <trkpt lat="42.92232" lon="0.76033">
        <ele>1428</ele>
        <time>2014-02-02T15:21:21Z</time>
      </trkpt>
      <trkpt lat="42.92228" lon="0.76024">
        <ele>1427</ele>
        <time>2014-02-02T15:21:25Z</time>
      </trkpt>
      <trkpt lat="42.92222" lon="0.76017">
        <ele>1426</ele>
        <time>2014-02-02T15:21:32Z</time>
      </trkpt>
      <trkpt lat="42.92215" lon="0.76009">
        <ele>1426</ele>
        <time>2014-02-02T15:21:39Z</time>
      </trkpt>
      <trkpt lat="42.92207" lon="0.76003">
        <ele>1425</ele>
        <time>2014-02-02T15:21:47Z</time>
      </trkpt>
      <trkpt lat="42.922" lon="0.75996">
        <ele>1423</ele>
        <time>2014-02-02T15:21:56Z</time>
      </trkpt>
      <trkpt lat="42.92192" lon="0.75999">
        <ele>1422</ele>
        <time>2014-02-02T15:22:15Z</time>
      </trkpt>
      <trkpt lat="42.92195" lon="0.75989">
        <ele>1419</ele>
        <time>2014-02-02T15:23:03Z</time>
      </trkpt>
      <trkpt lat="42.92188" lon="0.75982">
        <ele>1413</ele>
        <time>2014-02-02T15:24:29Z</time>
      </trkpt>
      <trkpt lat="42.92179" lon="0.75985">
        <ele>1407</ele>
        <time>2014-02-02T15:25:04Z</time>
      </trkpt>
      <trkpt lat="42.92165" lon="0.75986">
        <ele>1406</ele>
        <time>2014-02-02T15:25:09Z</time>
      </trkpt>
      <trkpt lat="42.92156" lon="0.75988">
        <ele>1405</ele>
        <time>2014-02-02T15:25:21Z</time>
      </trkpt>
      <trkpt lat="42.92148" lon="0.75989">
        <ele>1406</ele>
        <time>2014-02-02T15:25:51Z</time>
      </trkpt>
      <trkpt lat="42.9214" lon="0.7599">
        <ele>1405</ele>
        <time>2014-02-02T15:25:55Z</time>
      </trkpt>
      <trkpt lat="42.92131" lon="0.75991">
        <ele>1404</ele>
        <time>2014-02-02T15:26:02Z</time>
      </trkpt>
      <trkpt lat="42.92123" lon="0.75995">
        <ele>1401</ele>
        <time>2014-02-02T15:26:19Z</time>
      </trkpt>
      <trkpt lat="42.92116" lon="0.76">
        <ele>1397</ele>
        <time>2014-02-02T15:26:36Z</time>
      </trkpt>
      <trkpt lat="42.92111" lon="0.7601">
        <ele>1392</ele>
        <time>2014-02-02T15:26:49Z</time>
      </trkpt>
      <trkpt lat="42.92103" lon="0.76015">
        <ele>1373</ele>
        <time>2014-02-02T15:27:27Z</time>
      </trkpt>
      <trkpt lat="42.92091" lon="0.76022">
        <ele>1372</ele>
        <time>2014-02-02T15:27:31Z</time>
      </trkpt>
      <trkpt lat="42.92083" lon="0.76025">
        <ele>1371</ele>
        <time>2014-02-02T15:27:37Z</time>
      </trkpt>
      <trkpt lat="42.92074" lon="0.76027">
        <ele>1371</ele>
        <time>2014-02-02T15:27:45Z</time>
      </trkpt>
      <trkpt lat="42.92065" lon="0.76027">
        <ele>1369</ele>
        <time>2014-02-02T15:28:01Z</time>
      </trkpt>
      <trkpt lat="42.92059" lon="0.76033">
        <ele>1367</ele>
        <time>2014-02-02T15:28:39Z</time>
      </trkpt>
      <trkpt lat="42.92052" lon="0.7604">
        <ele>1367</ele>
        <time>2014-02-02T15:28:46Z</time>
      </trkpt>
      <trkpt lat="42.92046" lon="0.76048">
        <ele>1367</ele>
        <time>2014-02-02T15:28:56Z</time>
      </trkpt>
      <trkpt lat="42.92037" lon="0.76052">
        <ele>1369</ele>
        <time>2014-02-02T15:29:36Z</time>
      </trkpt>
      <trkpt lat="42.92031" lon="0.76056">
        <ele>1363</ele>
        <time>2014-02-02T15:30:15Z</time>
      </trkpt>
      <trkpt lat="42.92025" lon="0.76063">
        <ele>1362</ele>
        <time>2014-02-02T15:31:47Z</time>
      </trkpt>
      <trkpt lat="42.92008" lon="0.76082">
        <ele>1361</ele>
        <time>2014-02-02T15:31:52Z</time>
      </trkpt>
      <trkpt lat="42.92002" lon="0.76096">
        <ele>1361</ele>
        <time>2014-02-02T15:31:56Z</time>
      </trkpt>
      <trkpt lat="42.91999" lon="0.76107">
        <ele>1359</ele>
        <time>2014-02-02T15:32:03Z</time>
      </trkpt>
      <trkpt lat="42.91995" lon="0.7612">
        <ele>1357</ele>
        <time>2014-02-02T15:32:07Z</time>
      </trkpt>
      <trkpt lat="42.91987" lon="0.76126">
        <ele>1352</ele>
        <time>2014-02-02T15:32:18Z</time>
      </trkpt>
      <trkpt lat="42.91982" lon="0.76135">
        <ele>1350</ele>
        <time>2014-02-02T15:32:23Z</time>
      </trkpt>
      <trkpt lat="42.91977" lon="0.76144">
        <ele>1350</ele>
        <time>2014-02-02T15:32:28Z</time>
      </trkpt>
      <trkpt lat="42.9197" lon="0.7615">
        <ele>1345</ele>
        <time>2014-02-02T15:32:51Z</time>
      </trkpt>
      <trkpt lat="42.91966" lon="0.76161">
        <ele>1345</ele>
        <time>2014-02-02T15:32:58Z</time>
      </trkpt>
      <trkpt lat="42.91958" lon="0.76165">
        <ele>1342</ele>
        <time>2014-02-02T15:33:14Z</time>
      </trkpt>
      <trkpt lat="42.9195" lon="0.7616">
        <ele>1339</ele>
        <time>2014-02-02T15:33:27Z</time>
      </trkpt>
      <trkpt lat="42.91943" lon="0.76165">
        <ele>1336</ele>
        <time>2014-02-02T15:33:39Z</time>
      </trkpt>
      <trkpt lat="42.91941" lon="0.7617">
        <ele>1338</ele>
        <time>2014-02-02T15:34:26Z</time>
      </trkpt>
      <trkpt lat="42.91941" lon="0.7617">
        <ele>1338</ele>
        <time>2014-02-02T15:34:26Z</time>
      </trkpt>
    </trkseg>
  </trk>
</gpx>